createdAt,value
2018-02-14T00:01:32.539Z,5.40
2018-02-14T00:03:59.932Z,5.50
2018-02-14T00:06:28.072Z,5.40
2018-02-14T00:08:55.486Z,5.30
2018-02-14T00:11:23.583Z,5.30
2018-02-14T00:16:19.259Z,5.30
2018-02-14T00:21:14.895Z,5.20
2018-02-14T00:23:42.315Z,5.10
2018-02-14T00:28:38.690Z,5.00
2018-02-14T00:31:06.892Z,5.00
2018-02-14T00:33:34.288Z,5.00
2018-02-14T00:38:30.100Z,4.90
2018-02-14T00:40:57.451Z,4.90
2018-02-14T00:43:24.808Z,4.90
2018-02-14T00:48:20.443Z,4.80
2018-02-14T00:53:16.055Z,4.70
2018-02-14T00:55:43.364Z,4.80
2018-02-14T01:00:39.182Z,4.80
2018-02-14T01:03:06.664Z,4.80
2018-02-14T01:08:02.303Z,4.80
2018-02-14T01:10:29.842Z,4.70
2018-02-14T01:15:26.315Z,4.60
2018-02-14T01:17:53.647Z,4.40
2018-02-14T01:22:55.387Z,4.50
2018-02-14T01:25:22.755Z,4.60
2018-02-14T01:27:50.848Z,4.50
2018-02-14T01:30:18.967Z,4.50
2018-02-14T01:32:46.441Z,4.50
2018-02-14T01:37:42.807Z,4.40
2018-02-14T01:42:39.209Z,4.40
2018-02-14T01:45:06.803Z,4.50
2018-02-14T01:47:34.149Z,4.50
2018-02-14T01:52:29.759Z,4.30
2018-02-14T01:54:57.109Z,4.30
2018-02-14T01:57:24.455Z,4.30
2018-02-14T01:59:52.539Z,4.30
2018-02-14T02:02:19.839Z,4.40
2018-02-14T02:07:16.226Z,4.30
2018-02-14T02:09:44.254Z,4.30
2018-02-14T02:12:11.699Z,4.30
2018-02-14T02:14:39.007Z,4.30
2018-02-14T02:17:06.423Z,4.30
2018-02-14T02:22:02.064Z,4.30
2018-02-14T02:26:58.415Z,4.20
2018-02-14T02:31:54.794Z,4.20
2018-02-14T02:34:22.155Z,4.20
2018-02-14T02:36:50.223Z,4.10
2018-02-14T02:39:29.835Z,4.00
2018-02-14T02:41:57.909Z,3.90
2018-02-14T02:44:25.952Z,3.90
2018-02-14T02:49:22.336Z,4.10
2018-02-14T02:51:49.792Z,4.20
2018-02-14T02:56:45.415Z,4.10
2018-02-14T03:01:41.800Z,4.10
2018-02-14T03:04:09.158Z,4.10
2018-02-14T03:06:36.464Z,4.10
2018-02-14T03:09:04.575Z,4.00
2018-02-14T03:11:32.659Z,3.90
2018-02-14T03:14:00.016Z,4.00
2018-02-14T03:16:27.344Z,4.00
2018-02-14T03:18:55.699Z,3.90
2018-02-14T03:21:23.835Z,3.90
2018-02-14T03:23:51.168Z,3.90
2018-02-14T03:26:18.546Z,3.90
2018-02-14T03:31:15.247Z,3.80
2018-02-14T03:33:42.736Z,3.90
2018-02-14T03:36:10.823Z,3.90
2018-02-14T03:41:06.435Z,4.00
2018-02-14T03:43:33.758Z,4.20
2018-02-14T03:46:01.880Z,4.20
2018-02-14T03:48:29.239Z,4.20
2018-02-14T03:58:21.384Z,4.40
2018-02-14T04:00:49.454Z,4.30
2018-02-14T04:03:16.839Z,4.40
2018-02-14T04:08:12.457Z,4.40
2018-02-14T04:10:39.990Z,4.30
2018-02-14T04:13:08.088Z,4.20
2018-02-14T04:15:35.436Z,4.10
2018-02-14T04:20:31.316Z,3.90
2018-02-14T04:25:27.750Z,4.10
2018-02-14T04:27:55.876Z,4.10
2018-02-14T04:30:24.259Z,4.10
2018-02-14T04:32:51.616Z,4.00
2018-02-14T04:35:19.000Z,4.00
2018-02-14T04:40:15.483Z,4.00
2018-02-14T04:42:42.852Z,4.10
2018-02-14T04:45:10.199Z,4.20
2018-02-14T04:47:38.311Z,4.20
2018-02-14T04:55:02.153Z,4.10
2018-02-14T04:59:57.727Z,4.10
2018-02-14T05:02:25.834Z,4.00
2018-02-14T05:04:53.637Z,4.00
2018-02-14T05:09:49.321Z,4.00
2018-02-14T05:12:16.748Z,4.00
2018-02-14T05:14:44.140Z,4.10
2018-02-14T05:17:11.488Z,4.10
2018-02-14T05:19:38.836Z,4.10
2018-02-14T05:22:06.939Z,4.20
2018-02-14T05:27:03.816Z,4.20
2018-02-14T05:31:59.472Z,4.20
2018-02-14T05:34:26.898Z,4.30
2018-02-14T05:36:54.348Z,4.30
2018-02-14T05:41:49.943Z,4.40
2018-02-14T05:46:45.619Z,4.40
2018-02-14T05:49:13.757Z,4.40
2018-02-14T05:51:41.141Z,4.40
2018-02-14T05:54:09.618Z,4.40
2018-02-14T05:56:37.760Z,4.40
2018-02-14T06:04:01.753Z,4.50
2018-02-14T06:06:29.892Z,4.40
2018-02-14T06:08:57.296Z,4.50
2018-02-14T06:13:53.064Z,4.20
2018-02-14T06:18:48.727Z,4.20
2018-02-14T06:21:16.066Z,4.20
2018-02-14T06:23:44.276Z,4.30
2018-02-14T06:26:11.611Z,4.30
2018-02-14T06:28:39.739Z,4.30
2018-02-14T06:36:04.359Z,4.30
2018-02-14T06:38:31.719Z,4.40
2018-02-14T06:40:59.100Z,4.40
2018-02-14T06:43:27.129Z,4.50
2018-02-14T06:45:54.551Z,4.50
2018-02-14T06:48:21.875Z,4.50
2018-02-14T06:50:49.924Z,4.40
2018-02-14T06:55:46.411Z,4.20
2018-02-14T07:00:42.779Z,4.30
2018-02-14T07:03:10.276Z,4.20
2018-02-14T07:08:06.681Z,4.30
2018-02-14T07:10:34.046Z,4.30
2018-02-14T07:13:01.375Z,4.40
2018-02-14T07:15:28.758Z,4.50
2018-02-14T07:20:24.348Z,4.50
2018-02-14T07:22:52.434Z,4.60
2018-02-14T07:30:17.150Z,4.70
2018-02-14T07:32:44.518Z,4.70
2018-02-14T07:35:12.085Z,4.50
2018-02-14T07:37:40.022Z,4.20
2018-02-14T07:40:07.387Z,4.10
2018-02-14T07:42:35.532Z,3.90
2018-02-14T07:45:02.884Z,3.90
2018-02-14T07:47:30.970Z,3.70
2018-02-14T07:49:58.823Z,3.70
2018-02-14T07:52:26.470Z,3.60
2018-02-14T07:57:22.155Z,3.70
2018-02-14T07:59:49.614Z,3.60
2018-02-14T08:02:16.952Z,3.70
2018-02-14T08:04:44.364Z,3.80
2018-02-14T08:07:12.407Z,3.80
2018-02-14T08:12:08.124Z,3.70
2018-02-14T08:14:35.434Z,3.60
2018-02-14T08:17:03.626Z,3.50
2018-02-14T08:19:31.779Z,3.50
2018-02-14T08:21:59.933Z,3.40
2018-02-14T08:26:56.491Z,3.40
2018-02-14T08:29:24.619Z,3.70
2018-02-14T08:31:52.356Z,3.80
2018-02-14T08:34:19.739Z,3.70
2018-02-14T08:44:12.836Z,4.00
2018-02-14T08:46:40.201Z,4.10
2018-02-14T08:56:32.495Z,5.30
2018-02-14T08:59:00.653Z,6.00
2018-02-14T09:03:56.336Z,6.90
2018-02-14T09:08:52.014Z,7.20
2018-02-14T09:11:19.372Z,6.90
2018-02-14T09:13:47.477Z,7.00
2018-02-14T09:16:14.914Z,7.20
2018-02-14T09:26:07.135Z,8.00
2018-02-14T09:31:02.751Z,7.80
2018-02-14T09:35:58.403Z,7.60
2018-02-14T09:38:25.781Z,7.60
2018-02-14T09:40:53.921Z,7.70
2018-02-14T09:48:17.969Z,7.80
2018-02-14T09:50:46.207Z,7.70
2018-02-14T09:55:41.909Z,8.20
2018-02-14T09:58:09.247Z,8.10
2018-02-14T10:00:36.602Z,7.90
2018-02-14T10:03:03.952Z,7.80
2018-02-14T10:07:59.554Z,8.10
2018-02-14T10:10:27.750Z,8.40
2018-02-14T10:12:55.087Z,8.60
2018-02-14T10:15:23.179Z,9.00
2018-02-14T10:17:50.587Z,9.60
2018-02-14T10:27:45.683Z,10.00
2018-02-14T10:30:13.031Z,9.90
2018-02-14T10:32:41.411Z,9.90
2018-02-14T10:35:08.779Z,9.50
2018-02-14T10:37:36.308Z,9.00
2018-02-14T10:40:03.700Z,8.60
2018-02-14T10:42:31.016Z,8.50
2018-02-14T10:47:26.645Z,8.30
2018-02-14T10:52:22.343Z,8.00
2018-02-14T10:54:49.785Z,8.30
2018-02-14T10:57:17.900Z,8.60
2018-02-14T10:59:45.248Z,8.90
2018-02-14T11:02:12.730Z,9.30
2018-02-14T11:07:18.738Z,9.70
2018-02-14T11:12:14.545Z,9.70
2018-02-14T11:14:42.636Z,9.90
2018-02-14T11:17:10.026Z,10.30
2018-02-14T11:19:37.379Z,10.80
2018-02-14T11:22:05.460Z,11.20
2018-02-14T11:24:33.793Z,11.50
2018-02-14T11:27:01.248Z,12.30
2018-02-14T11:29:28.671Z,13.20
2018-02-14T11:31:56.146Z,14.10
2018-02-14T11:34:23.552Z,14.90
2018-02-14T11:36:51.223Z,15.20
2018-02-14T11:41:47.728Z,15.70
2018-02-14T11:46:43.458Z,15.60
2018-02-14T11:51:39.308Z,15.00
2018-02-14T11:54:07.456Z,15.20
2018-02-14T11:56:34.807Z,15.20
2018-02-14T11:59:02.155Z,15.00
2018-02-14T12:01:30.407Z,15.00
2018-02-14T12:03:57.812Z,15.20
2018-02-14T12:06:25.151Z,15.10
2018-02-14T12:11:20.783Z,14.50
2018-02-14T12:13:48.163Z,14.50
2018-02-14T12:16:16.644Z,14.30
2018-02-14T12:21:13.439Z,13.70
2018-02-14T12:23:40.793Z,13.60
2018-02-14T12:26:08.882Z,12.70
2018-02-14T12:28:36.228Z,12.20
2018-02-14T12:33:32.013Z,12.30
2018-02-14T12:38:28.430Z,12.30
2018-02-14T12:43:24.125Z,12.50
2018-02-14T12:45:51.467Z,12.50
2018-02-14T12:48:19.575Z,12.60
2018-02-14T12:50:46.888Z,12.40
2018-02-14T12:55:42.599Z,12.40
2018-02-14T13:00:38.260Z,11.50
2018-02-14T13:03:05.878Z,11.50
2018-02-14T13:08:02.779Z,11.40
2018-02-14T13:10:30.900Z,11.70
2018-02-14T13:15:27.020Z,11.80
2018-02-14T13:17:54.371Z,11.80
2018-02-14T13:20:22.483Z,11.50
2018-02-14T13:27:47.604Z,11.50
2018-02-14T13:30:15.076Z,11.40
2018-02-14T13:32:43.205Z,11.70
2018-02-14T13:35:10.542Z,11.90
2018-02-14T13:37:38.089Z,11.40
2018-02-14T13:40:06.197Z,10.80
2018-02-14T13:42:33.731Z,10.40
2018-02-14T13:45:01.892Z,10.20
2018-02-14T13:47:29.333Z,10.00
2018-02-14T13:49:57.188Z,9.80
2018-02-14T13:52:24.559Z,9.80
2018-02-14T13:54:52.646Z,9.60
2018-02-14T13:57:20.399Z,9.50
2018-02-14T13:59:49.132Z,9.20
2018-02-14T14:02:17.308Z,9.10
2018-02-14T14:04:45.637Z,9.10
2018-02-14T14:07:12.964Z,9.20
2018-02-14T14:09:40.429Z,9.30
2018-02-14T14:12:08.616Z,9.30
2018-02-14T14:14:36.691Z,9.30
2018-02-14T14:19:32.339Z,9.30
2018-02-14T14:22:00.463Z,9.30
2018-02-14T14:24:27.963Z,9.30
2018-02-14T14:29:24.487Z,9.40
2018-02-14T14:31:52.587Z,9.40
2018-02-14T14:34:20.121Z,9.40
2018-02-14T14:36:48.263Z,9.50
2018-02-14T14:39:15.856Z,9.70
2018-02-14T14:44:11.607Z,9.60
2018-02-14T14:46:39.802Z,9.60
2018-02-14T14:49:07.216Z,9.60
2018-02-14T14:51:35.328Z,9.40
2018-02-14T14:54:02.793Z,9.30
2018-02-14T14:56:30.176Z,9.30
2018-02-14T14:58:58.387Z,9.00
2018-02-14T15:01:25.794Z,8.90
2018-02-14T15:03:53.503Z,8.90
2018-02-14T15:06:20.871Z,9.00
2018-02-14T15:08:48.960Z,9.10
2018-02-14T15:11:16.395Z,9.10
2018-02-14T15:13:44.762Z,9.10
2018-02-14T15:16:12.207Z,9.30
2018-02-14T15:21:08.582Z,9.40
2018-02-14T15:23:36.726Z,9.30
2018-02-14T15:26:04.848Z,9.40
2018-02-14T15:31:00.950Z,9.40
2018-02-14T15:35:56.580Z,9.30
2018-02-14T15:38:25.580Z,9.40
2018-02-14T15:40:52.935Z,9.40
2018-02-14T15:45:51.069Z,9.30
2018-02-14T15:50:46.763Z,9.50
2018-02-14T15:53:14.898Z,9.50
2018-02-14T15:58:10.543Z,9.50
2018-02-14T16:00:41.111Z,9.50
2018-02-14T16:03:14.394Z,9.50
2018-02-14T16:08:11.265Z,9.60
2018-02-14T16:10:38.781Z,9.70
2018-02-14T16:13:06.460Z,9.60
2018-02-14T16:15:34.031Z,9.60
2018-02-14T16:18:01.530Z,9.50
2018-02-14T16:20:29.212Z,9.60
2018-02-14T16:22:56.692Z,9.60
2018-02-14T16:25:24.247Z,9.60
2018-02-14T16:27:52.659Z,9.60
2018-02-14T16:30:23.111Z,9.60
2018-02-14T16:32:52.251Z,9.50
2018-02-14T16:35:22.651Z,9.40
2018-02-14T16:37:50.180Z,9.40
2018-02-14T16:40:17.748Z,9.30
2018-02-14T16:42:45.215Z,9.30
2018-02-14T16:45:13.416Z,9.30
2018-02-14T16:47:41.536Z,9.30
2018-02-14T16:50:11.116Z,9.30
2018-02-14T16:52:39.440Z,9.30
2018-02-14T16:55:09.735Z,9.30
2018-02-14T16:57:38.145Z,9.30
2018-02-14T17:00:05.604Z,9.30
2018-02-14T17:02:41.461Z,9.30
2018-02-14T17:05:09.371Z,9.30
2018-02-14T17:07:36.755Z,9.20
2018-02-14T17:10:04.324Z,9.20
2018-02-14T17:12:31.799Z,9.10
2018-02-14T17:15:00.000Z,9.10
2018-02-14T17:17:28.249Z,9.10
2018-02-14T17:19:59.037Z,9.00
2018-02-14T17:22:28.286Z,9.00
2018-02-14T17:24:57.588Z,9.00
2018-02-14T17:27:32.007Z,8.90
2018-02-14T17:29:59.493Z,8.90
2018-02-14T17:32:27.692Z,8.80
2018-02-14T17:34:55.101Z,8.80
2018-02-14T17:37:22.576Z,8.60
2018-02-14T17:39:52.748Z,8.60
2018-02-14T17:42:20.223Z,8.60
2018-02-14T17:44:47.606Z,8.60
2018-02-14T17:47:23.648Z,8.60
2018-02-14T17:49:51.990Z,8.50
2018-02-14T17:52:19.368Z,8.50
2018-02-14T17:54:48.843Z,8.60
2018-02-14T17:57:16.296Z,8.60
2018-02-14T17:59:43.751Z,8.70
2018-02-14T18:02:18.918Z,8.60
2018-02-14T18:04:46.666Z,8.60
2018-02-14T18:07:14.053Z,8.50
2018-02-14T18:09:42.225Z,8.40
2018-02-14T18:12:10.649Z,8.30
2018-02-14T18:14:40.817Z,8.20
2018-02-14T18:17:08.952Z,8.20
2018-02-14T18:19:37.255Z,8.10
2018-02-14T18:22:04.663Z,8.20
2018-02-14T18:24:32.030Z,8.00
2018-02-14T18:27:00.387Z,7.90
2018-02-14T18:29:27.805Z,7.90
2018-02-14T18:31:57.203Z,7.70
2018-02-14T18:34:24.633Z,7.70
2018-02-14T18:36:52.108Z,7.70
2018-02-14T18:39:19.530Z,7.80
2018-02-14T18:41:50.581Z,7.80
2018-02-14T18:44:20.668Z,7.90
2018-02-14T18:46:48.080Z,7.90
2018-02-14T18:49:16.270Z,7.60
2018-02-14T18:51:43.627Z,7.50
2018-02-14T18:54:11.028Z,7.40
2018-02-14T18:56:38.442Z,7.60
2018-02-14T18:59:06.581Z,7.60
2018-02-14T19:01:34.224Z,7.50
2018-02-14T19:04:01.695Z,7.60
2018-02-14T19:06:29.164Z,7.70
2018-02-14T19:08:56.543Z,7.60
2018-02-14T19:11:24.069Z,7.70
2018-02-14T19:13:53.992Z,7.70
2018-02-14T19:16:21.406Z,7.80
2018-02-14T19:18:48.800Z,7.80
2018-02-14T19:21:16.275Z,7.80
2018-02-14T19:23:43.649Z,7.70
2018-02-14T19:26:11.792Z,7.50
2018-02-14T19:28:39.155Z,7.70
2018-02-14T19:31:06.527Z,7.80
2018-02-14T19:33:34.098Z,7.90
2018-02-14T19:36:01.614Z,7.80
2018-02-14T19:38:29.047Z,7.70
2018-02-14T19:40:56.492Z,7.60
2018-02-14T19:43:23.880Z,7.70
2018-02-14T19:45:51.348Z,7.70
2018-02-14T19:48:18.784Z,7.70
2018-02-14T19:50:47.021Z,7.70
2018-02-14T19:53:14.412Z,7.70
2018-02-14T19:55:42.174Z,7.70
2018-02-14T19:58:09.700Z,7.80
2018-02-14T20:00:37.186Z,7.80
2018-02-14T20:03:04.594Z,7.80
2018-02-14T20:05:32.771Z,7.70
2018-02-14T20:08:00.308Z,7.60
2018-02-14T20:10:27.733Z,7.60
2018-02-14T20:12:55.138Z,7.60
2018-02-14T20:15:23.260Z,7.60
2018-02-14T20:17:50.705Z,7.60
2018-02-14T20:20:18.091Z,7.60
2018-02-14T20:22:45.475Z,7.50
2018-02-14T20:25:13.092Z,7.40
2018-02-14T20:27:40.522Z,7.30
2018-02-14T20:30:07.889Z,7.20
2018-02-14T20:32:35.415Z,7.20
2018-02-14T20:35:02.777Z,7.10
2018-02-14T20:37:30.228Z,7.10
2018-02-14T20:39:57.631Z,7.00
2018-02-14T20:42:25.064Z,7.00
2018-02-14T20:44:52.460Z,7.00
2018-02-14T20:47:19.975Z,7.00
2018-02-14T20:49:47.361Z,7.00
2018-02-14T20:52:14.798Z,7.00
2018-02-14T20:54:42.325Z,7.00
2018-02-14T20:57:09.731Z,7.00
2018-02-14T20:59:37.417Z,6.90
2018-02-14T21:02:05.552Z,6.80
2018-02-14T21:04:32.961Z,6.80
2018-02-14T21:07:00.363Z,6.60
2018-02-14T21:09:27.764Z,6.70
2018-02-14T21:11:55.953Z,6.60
2018-02-14T21:14:25.028Z,6.50
2018-02-14T21:16:52.438Z,6.40
2018-02-14T21:19:19.806Z,6.40
2018-02-14T21:21:47.204Z,6.50
2018-02-14T21:24:15.301Z,6.40
2018-02-14T21:26:42.702Z,6.40
2018-02-14T21:29:10.101Z,6.40
2018-02-14T21:31:37.461Z,6.40
2018-02-14T21:34:04.876Z,6.40
2018-02-14T21:36:32.228Z,6.20
2018-02-14T21:38:59.849Z,6.20
2018-02-14T21:41:27.249Z,6.30
2018-02-14T21:43:55.411Z,6.20
2018-02-14T21:46:22.795Z,6.30
2018-02-14T21:48:50.359Z,6.30
2018-02-14T21:51:17.843Z,6.40
2018-02-14T21:53:45.229Z,6.30
2018-02-14T21:56:13.331Z,6.30
2018-02-14T21:58:41.511Z,6.30
2018-02-14T22:01:08.968Z,6.30
2018-02-14T22:03:36.415Z,6.40
2018-02-14T22:06:04.628Z,6.20
2018-02-14T22:08:32.032Z,6.30
2018-02-14T22:10:59.466Z,6.40
2018-02-14T22:13:26.858Z,6.30
2018-02-14T22:15:54.988Z,6.20
2018-02-14T22:18:22.344Z,6.20
2018-02-14T22:20:49.786Z,6.20
2018-02-14T22:23:17.166Z,6.10
2018-02-14T22:25:44.523Z,6.10
2018-02-14T22:28:12.044Z,6.20
2018-02-14T22:30:39.433Z,6.20
2018-02-14T22:33:06.833Z,6.00
2018-02-14T22:35:34.159Z,6.00
2018-02-14T22:38:01.723Z,6.10
2018-02-14T22:40:29.179Z,6.00
2018-02-14T22:42:57.456Z,6.00
2018-02-14T22:45:24.920Z,5.90
2018-02-14T22:47:52.305Z,5.80
2018-02-14T22:50:19.690Z,5.70
2018-02-14T22:52:47.039Z,5.80
2018-02-14T22:55:14.567Z,5.90
2018-02-14T22:57:42.882Z,5.80
2018-02-14T23:00:10.548Z,5.90
2018-02-14T23:02:38.734Z,6.00
2018-02-14T23:05:06.909Z,5.90
2018-02-14T23:07:35.038Z,5.80
2018-02-14T23:10:02.616Z,5.90
2018-02-14T23:12:29.997Z,5.90
2018-02-14T23:19:54.667Z,5.90
2018-02-14T23:22:22.807Z,5.90
2018-02-14T23:24:50.143Z,5.80
2018-02-14T23:27:18.264Z,5.70
2018-02-14T23:29:45.644Z,5.70
2018-02-14T23:32:13.218Z,5.60
2018-02-14T23:34:41.406Z,5.40
2018-02-14T23:39:37.175Z,5.50
2018-02-14T23:44:32.791Z,5.60
2018-02-14T23:51:56.877Z,5.20
2018-02-14T23:54:24.214Z,5.20
2018-02-14T23:56:51.580Z,5.30
2018-02-14T23:59:18.886Z,5.40
